Los Lunas, New Mexico
Current Conditions -  °F | °C
As of 9:55 AM on Thursday 30 Oct 2014 (Local Time) from KE80 Reporting Station
Clear Clear  
Wind Chill: 58°   Ceiling: Unl
Heat Index: 58°   Visibility: 10mi
Dew Point: 18°   Wind: 9mph
Humidity: 21%   Direction: 330°NNW
Pressure: 30.35"   Gusts: NA
Location:  34.81°N, 106.74°W
Report Text: KE80 301555Z AUTO 33008KT 10SM CLR 15/M08 A3035 RMK AO2 T01451079
Loading
Personal Weather Stations






























Interactive Weather Map
Tropical Storm Tracking
New forecast layout! Learn more

10-Day Weather Forecast

Advertisements
Track Severe Weather on mobile